KACV/ACV METAR and TAF weather

Enter ICAO airport designator
Station Type Date Time Source
KACV METAR 2020/01/21 15:24 UTC NOAA

KACV 211524Z AUTO 00000KT 4SM RA BR FEW006 BKN012 OVC029 09/07 A2995 RMK AO2 P0007 T00890072


Station Type Date Time Source
KACV Decoded METAR 2020/01/21 15:24 UTC NOAA

ARCATA/EUREKA ARCATA AIRPORT, CA, United States (KACV) 40-59N 124-06W 67M
Jan 21, 2020 - 10:24 AM EST / 2020.01.21 1524 UTC
Wind: Calm:0
Visibility: 4 mile(s):0
Sky conditions: overcast
Weather: rain; mist
Precipitation last hour: 0.07 inches
Temperature: 48.0 F (8.9 C)
Dew Point: 45.0 F (7.2 C)
Relative Humidity: 89%
Pressure (altimeter): 29.95 in. Hg (1014 hPa)
ob: KACV 211524Z AUTO 00000KT 4SM RA BR FEW006 BKN012 OVC029 09/07 A2995 RMK AO2 P0007 T00890072
cycle: 15

Station Type Date Time Source
KACV TAF 2020/01/21 15:39 UTC NOAA

TAF
AMD KACV 211437Z 2115/2212 25010KT 3SM RA BR FEW004 OVC015
FM211600 19010KT P6SM VCSH BKN025 OVC035
FM212100 22008KT P6SM VCSH SCT025 BKN040
FM212330 20005KT P6SM OVC050
FM220800 17008KT P6SM OVC040

Example: see airport list